Archival Weather

NSFA McMurdo Sound

NSFA McMurdo Sound, Antarctica (NZCM)

Report from: Friday, September 23, 2022 10:30 PM UTC
Current time: Sunday, December 4, 2022 1:10 PM UTC

Current weather
Weather history
Weather forecast

Present weatherFreezing fog
Temperature-13.8°C (7.2°F)
Wind chill-23.4°C (-10.2°F)
Dew point-16.4°C (2.5°F)
Winds 13 kts (6.7 m/s, 15 mph) Vrb
Wind gusts 24 kts (12.3 m/s, 27.6 mph)
Winds variableWinds variable from East-Southeast (110°) to South (170°)
Peak wind 28 kts (14.4 m/s, 32.2 mph) Southeast (140°) at 17:00
Visibility0.3 mi. (0.5 km)
Clouds Ceiling: Vertical visibility 300 ft. (91 m)
Altimeter28.65 in.Hg (970 mB)
Precip. events Snow ended 10:30 PM
Relative humidity81 %
Density altitude-2,089 ft. (-637 m)
Sea-level pressure107.1 kPa (1071 mB, 31.62 in.Hg)
Remarks Fully automated report
System requires maintenance
Special weather observation
Automated weather observing station with precipitation discriminator
Flight conditions Low Instrument Meteorological Conditions
Raw dataSPECI NZCM 232230Z AUTO 14013G24KT 110V170 0500 FZFG VV003 M14/M16 A2865 RMK AO2 PK WND 14028/2200 SNE2230 SLP708 T11381164 $
An error has occurred. This application may no longer respond until reloaded. Reload 🗙